sensor_id;sensor_type;location;lat;lon;timestamp;temperature;humidity
53268;DHT22;39156;51.176;6.738;2023-07-29T00:00:43;19.50;88.10
53268;DHT22;39156;51.176;6.738;2023-07-29T00:03:09;19.50;88.20
53268;DHT22;39156;51.176;6.738;2023-07-29T00:05:36;19.50;88.80
53268;DHT22;39156;51.176;6.738;2023-07-29T00:08:02;19.50;88.20
53268;DHT22;39156;51.176;6.738;2023-07-29T00:10:28;19.50;88.00
53268;DHT22;39156;51.176;6.738;2023-07-29T00:12:56;19.50;88.00
53268;DHT22;39156;51.176;6.738;2023-07-29T00:15:21;19.50;87.90
53268;DHT22;39156;51.176;6.738;2023-07-29T00:17:47;19.50;87.80
53268;DHT22;39156;51.176;6.738;2023-07-29T00:20:13;19.50;87.80
53268;DHT22;39156;51.176;6.738;2023-07-29T00:22:38;19.50;87.80
53268;DHT22;39156;51.176;6.738;2023-07-29T00:25:04;19.40;87.70
53268;DHT22;39156;51.176;6.738;2023-07-29T00:27:30;19.40;87.70
53268;DHT22;39156;51.176;6.738;2023-07-29T00:29:56;19.40;87.80
53268;DHT22;39156;51.176;6.738;2023-07-29T00:32:22;19.40;87.90
53268;DHT22;39156;51.176;6.738;2023-07-29T00:34:48;19.40;87.90
53268;DHT22;39156;51.176;6.738;2023-07-29T00:37:13;19.20;87.80
53268;DHT22;39156;51.176;6.738;2023-07-29T00:39:39;19.30;87.90
53268;DHT22;39156;51.176;6.738;2023-07-29T00:42:05;19.20;87.80
53268;DHT22;39156;51.176;6.738;2023-07-29T00:44:31;19.20;87.70
53268;DHT22;39156;51.176;6.738;2023-07-29T00:47:02;19.20;87.70
53268;DHT22;39156;51.176;6.738;2023-07-29T00:49:28;19.20;87.80
53268;DHT22;39156;51.176;6.738;2023-07-29T00:51:54;19.20;87.80
53268;DHT22;39156;51.176;6.738;2023-07-29T00:54:20;19.20;87.90
53268;DHT22;39156;51.176;6.738;2023-07-29T00:56:46;19.10;87.90
53268;DHT22;39156;51.176;6.738;2023-07-29T00:59:11;19.00;87.90
53268;DHT22;39156;51.176;6.738;2023-07-29T01:01:38;19.00;88.00
53268;DHT22;39156;51.176;6.738;2023-07-29T01:04:04;19.00;88.10
53268;DHT22;39156;51.176;6.738;2023-07-29T01:06:49;19.00;88.20
53268;DHT22;39156;51.176;6.738;2023-07-29T01:09:31;18.90;88.40
53268;DHT22;39156;51.176;6.738;2023-07-29T01:12:14;19.00;88.40
53268;DHT22;39156;51.176;6.738;2023-07-29T01:15:14;18.90;88.50
53268;DHT22;39156;51.176;6.738;2023-07-29T01:17:49;18.90;88.70
53268;DHT22;39156;51.176;6.738;2023-07-29T01:20:19;18.90;88.60
53268;DHT22;39156;51.176;6.738;2023-07-29T01:22:46;18.90;88.50
53268;DHT22;39156;51.176;6.738;2023-07-29T01:25:13;18.90;88.50
53268;DHT22;39156;51.176;6.738;2023-07-29T01:27:42;18.90;88.60
53268;DHT22;39156;51.176;6.738;2023-07-29T01:30:08;18.90;88.80
53268;DHT22;39156;51.176;6.738;2023-07-29T01:32:54;18.90;88.70
53268;DHT22;39156;51.176;6.738;2023-07-29T01:38:09;18.90;88.70
53268;DHT22;39156;51.176;6.738;2023-07-29T01:40:43;18.90;88.80
53268;DHT22;39156;51.176;6.738;2023-07-29T01:43:10;18.90;88.70
53268;DHT22;39156;51.176;6.738;2023-07-29T01:45:36;18.90;88.70
53268;DHT22;39156;51.176;6.738;2023-07-29T01:48:07;19.00;88.80
53268;DHT22;39156;51.176;6.738;2023-07-29T01:50:36;19.00;88.90
53268;DHT22;39156;51.176;6.738;2023-07-29T01:53:01;19.00;88.80
53268;DHT22;39156;51.176;6.738;2023-07-29T01:55:28;18.90;88.80
53268;DHT22;39156;51.176;6.738;2023-07-29T01:57:54;18.90;88.80
53268;DHT22;39156;51.176;6.738;2023-07-29T02:00:20;19.00;89.10
53268;DHT22;39156;51.176;6.738;2023-07-29T02:02:46;19.00;88.70
53268;DHT22;39156;51.176;6.738;2023-07-29T02:05:12;19.00;88.80
53268;DHT22;39156;51.176;6.738;2023-07-29T02:07:38;18.90;88.80
53268;DHT22;39156;51.176;6.738;2023-07-29T02:10:04;18.90;88.80
53268;DHT22;39156;51.176;6.738;2023-07-29T02:12:29;18.90;88.80
53268;DHT22;39156;51.176;6.738;2023-07-29T02:14:55;18.90;88.80
53268;DHT22;39156;51.176;6.738;2023-07-29T02:17:21;18.90;89.00
53268;DHT22;39156;51.176;6.738;2023-07-29T02:19:46;18.90;89.10
53268;DHT22;39156;51.176;6.738;2023-07-29T02:22:16;18.90;89.20
53268;DHT22;39156;51.176;6.738;2023-07-29T02:24:43;18.90;89.50
53268;DHT22;39156;51.176;6.738;2023-07-29T02:27:08;18.90;89.40
53268;DHT22;39156;51.176;6.738;2023-07-29T02:29:34;18.90;89.60
53268;DHT22;39156;51.176;6.738;2023-07-29T02:32:00;18.90;89.50
53268;DHT22;39156;51.176;6.738;2023-07-29T02:34:26;19.00;89.60
53268;DHT22;39156;51.176;6.738;2023-07-29T02:36:51;19.00;89.50
53268;DHT22;39156;51.176;6.738;2023-07-29T02:39:17;19.00;89.50
53268;DHT22;39156;51.176;6.738;2023-07-29T02:41:43;18.90;89.40
53268;DHT22;39156;51.176;6.738;2023-07-29T02:44:08;19.00;89.40
53268;DHT22;39156;51.176;6.738;2023-07-29T02:46:34;19.00;89.40
53268;DHT22;39156;51.176;6.738;2023-07-29T02:49:01;19.00;89.40
53268;DHT22;39156;51.176;6.738;2023-07-29T02:51:31;19.00;89.30
53268;DHT22;39156;51.176;6.738;2023-07-29T02:53:57;19.10;89.40
53268;DHT22;39156;51.176;6.738;2023-07-29T02:56:23;19.00;89.30
53268;DHT22;39156;51.176;6.738;2023-07-29T02:58:49;19.00;89.30
53268;DHT22;39156;51.176;6.738;2023-07-29T03:01:16;19.00;89.20
53268;DHT22;39156;51.176;6.738;2023-07-29T03:03:42;19.00;89.20
53268;DHT22;39156;51.176;6.738;2023-07-29T03:06:09;19.00;89.20
53268;DHT22;39156;51.176;6.738;2023-07-29T03:08:36;19.00;89.30
53268;DHT22;39156;51.176;6.738;2023-07-29T03:11:14;19.00;89.20
53268;DHT22;39156;51.176;6.738;2023-07-29T03:13:40;19.00;89.50
53268;DHT22;39156;51.176;6.738;2023-07-29T03:16:07;19.00;89.90
53268;DHT22;39156;51.176;6.738;2023-07-29T03:18:37;19.00;89.30
53268;DHT22;39156;51.176;6.738;2023-07-29T03:21:03;19.00;89.30
53268;DHT22;39156;51.176;6.738;2023-07-29T03:23:29;19.00;89.50
53268;DHT22;39156;51.176;6.738;2023-07-29T03:25:56;19.00;89.10
53268;DHT22;39156;51.176;6.738;2023-07-29T03:28:28;19.00;89.40
53268;DHT22;39156;51.176;6.738;2023-07-29T03:30:58;19.00;89.20
53268;DHT22;39156;51.176;6.738;2023-07-29T03:33:25;19.00;89.10
53268;DHT22;39156;51.176;6.738;2023-07-29T03:35:52;18.90;88.90
53268;DHT22;39156;51.176;6.738;2023-07-29T03:38:18;18.90;89.10
53268;DHT22;39156;51.176;6.738;2023-07-29T03:40:43;18.90;89.10
53268;DHT22;39156;51.176;6.738;2023-07-29T03:43:09;18.90;89.30
53268;DHT22;39156;51.176;6.738;2023-07-29T03:45:36;18.90;89.40
53268;DHT22;39156;51.176;6.738;2023-07-29T03:48:02;18.90;89.40
53268;DHT22;39156;51.176;6.738;2023-07-29T03:50:28;18.90;89.70
53268;DHT22;39156;51.176;6.738;2023-07-29T03:52:55;18.90;89.20
53268;DHT22;39156;51.176;6.738;2023-07-29T03:55:21;18.90;89.30
53268;DHT22;39156;51.176;6.738;2023-07-29T03:57:47;18.90;89.40
53268;DHT22;39156;51.176;6.738;2023-07-29T04:00:13;18.90;89.40
53268;DHT22;39156;51.176;6.738;2023-07-29T04:02:39;18.90;89.50
53268;DHT22;39156;51.176;6.738;2023-07-29T04:05:05;18.90;89.50
53268;DHT22;39156;51.176;6.738;2023-07-29T04:07:35;18.90;89.50
53268;DHT22;39156;51.176;6.738;2023-07-29T04:10:01;18.80;89.60
53268;DHT22;39156;51.176;6.738;2023-07-29T04:12:27;18.80;89.60
53268;DHT22;39156;51.176;6.738;2023-07-29T04:14:53;18.80;89.70
53268;DHT22;39156;51.176;6.738;2023-07-29T04:17:19;18.80;89.80
53268;DHT22;39156;51.176;6.738;2023-07-29T04:19:44;18.80;89.80
53268;DHT22;39156;51.176;6.738;2023-07-29T04:22:10;18.80;89.80
53268;DHT22;39156;51.176;6.738;2023-07-29T04:24:36;18.80;89.80
53268;DHT22;39156;51.176;6.738;2023-07-29T04:27:03;18.70;89.80
53268;DHT22;39156;51.176;6.738;2023-07-29T04:29:29;18.70;89.90
53268;DHT22;39156;51.176;6.738;2023-07-29T04:31:55;18.70;90.00
53268;DHT22;39156;51.176;6.738;2023-07-29T04:34:21;18.80;90.00
53268;DHT22;39156;51.176;6.738;2023-07-29T04:36:47;18.70;90.00
53268;DHT22;39156;51.176;6.738;2023-07-29T04:39:14;18.70;90.00
53268;DHT22;39156;51.176;6.738;2023-07-29T04:41:40;18.70;89.90
53268;DHT22;39156;51.176;6.738;2023-07-29T04:44:05;18.70;90.00
53268;DHT22;39156;51.176;6.738;2023-07-29T04:46:31;18.70;90.00
53268;DHT22;39156;51.176;6.738;2023-07-29T04:48:57;18.60;90.20
53268;DHT22;39156;51.176;6.738;2023-07-29T04:51:23;18.60;90.00
53268;DHT22;39156;51.176;6.738;2023-07-29T04:53:49;18.70;90.00
53268;DHT22;39156;51.176;6.738;2023-07-29T04:56:15;18.70;90.10
53268;DHT22;39156;51.176;6.738;2023-07-29T04:58:41;18.70;90.10
53268;DHT22;39156;51.176;6.738;2023-07-29T05:01:06;18.70;90.20
53268;DHT22;39156;51.176;6.738;2023-07-29T05:03:32;18.70;90.30
53268;DHT22;39156;51.176;6.738;2023-07-29T05:05:58;18.70;90.20
53268;DHT22;39156;51.176;6.738;2023-07-29T05:08:27;18.80;90.20
53268;DHT22;39156;51.176;6.738;2023-07-29T05:10:53;18.80;90.20
53268;DHT22;39156;51.176;6.738;2023-07-29T05:13:20;18.90;90.10
53268;DHT22;39156;51.176;6.738;2023-07-29T05:15:47;18.90;90.10
53268;DHT22;39156;51.176;6.738;2023-07-29T05:18:14;19.00;90.00
53268;DHT22;39156;51.176;6.738;2023-07-29T05:20:40;19.00;89.90
53268;DHT22;39156;51.176;6.738;2023-07-29T05:23:06;19.10;90.00
53268;DHT22;39156;51.176;6.738;2023-07-29T05:25:32;19.20;89.60
53268;DHT22;39156;51.176;6.738;2023-07-29T05:28:00;19.20;90.00
53268;DHT22;39156;51.176;6.738;2023-07-29T05:30:26;19.20;89.10
53268;DHT22;39156;51.176;6.738;2023-07-29T05:32:56;19.10;88.80
53268;DHT22;39156;51.176;6.738;2023-07-29T05:35:25;19.20;88.70
53268;DHT22;39156;51.176;6.738;2023-07-29T05:37:51;19.20;88.60
53268;DHT22;39156;51.176;6.738;2023-07-29T05:40:17;19.20;88.50
53268;DHT22;39156;51.176;6.738;2023-07-29T05:42:43;19.20;88.40
53268;DHT22;39156;51.176;6.738;2023-07-29T05:45:10;19.20;88.10
53268;DHT22;39156;51.176;6.738;2023-07-29T05:47:36;19.20;88.10
53268;DHT22;39156;51.176;6.738;2023-07-29T05:50:03;19.20;87.90
53268;DHT22;39156;51.176;6.738;2023-07-29T05:52:30;19.20;87.70
53268;DHT22;39156;51.176;6.738;2023-07-29T05:54:56;19.20;87.60
53268;DHT22;39156;51.176;6.738;2023-07-29T05:57:22;19.10;87.50
53268;DHT22;39156;51.176;6.738;2023-07-29T05:59:48;19.10;87.60
53268;DHT22;39156;51.176;6.738;2023-07-29T06:02:14;19.10;87.40
53268;DHT22;39156;51.176;6.738;2023-07-29T06:04:40;19.20;87.50
53268;DHT22;39156;51.176;6.738;2023-07-29T06:07:06;19.10;87.20
53268;DHT22;39156;51.176;6.738;2023-07-29T06:09:32;19.10;87.10
53268;DHT22;39156;51.176;6.738;2023-07-29T06:11:57;19.10;87.00
53268;DHT22;39156;51.176;6.738;2023-07-29T06:14:23;19.10;87.10
53268;DHT22;39156;51.176;6.738;2023-07-29T06:16:49;19.00;86.70
53268;DHT22;39156;51.176;6.738;2023-07-29T06:19:15;19.10;86.50
53268;DHT22;39156;51.176;6.738;2023-07-29T06:21:40;19.00;86.30
53268;DHT22;39156;51.176;6.738;2023-07-29T06:24:06;19.10;86.10
53268;DHT22;39156;51.176;6.738;2023-07-29T06:26:32;19.10;85.40
53268;DHT22;39156;51.176;6.738;2023-07-29T06:28:57;19.20;85.90
53268;DHT22;39156;51.176;6.738;2023-07-29T06:31:23;19.20;86.10
53268;DHT22;39156;51.176;6.738;2023-07-29T06:33:49;19.20;85.80
53268;DHT22;39156;51.176;6.738;2023-07-29T06:36:14;19.30;85.50
53268;DHT22;39156;51.176;6.738;2023-07-29T06:38:40;19.30;84.70
53268;DHT22;39156;51.176;6.738;2023-07-29T06:41:07;19.40;84.80
53268;DHT22;39156;51.176;6.738;2023-07-29T06:43:33;19.40;84.90
53268;DHT22;39156;51.176;6.738;2023-07-29T06:45:58;19.40;84.60
53268;DHT22;39156;51.176;6.738;2023-07-29T06:48:24;19.40;84.70
53268;DHT22;39156;51.176;6.738;2023-07-29T06:50:50;19.50;84.80
53268;DHT22;39156;51.176;6.738;2023-07-29T06:53:16;19.50;84.70
53268;DHT22;39156;51.176;6.738;2023-07-29T06:55:43;19.50;84.50
53268;DHT22;39156;51.176;6.738;2023-07-29T06:58:09;19.60;84.50
53268;DHT22;39156;51.176;6.738;2023-07-29T07:00:35;19.60;84.40
53268;DHT22;39156;51.176;6.738;2023-07-29T07:03:01;19.60;84.30
53268;DHT22;39156;51.176;6.738;2023-07-29T07:05:27;19.70;84.40
53268;DHT22;39156;51.176;6.738;2023-07-29T07:07:52;19.70;84.70
53268;DHT22;39156;51.176;6.738;2023-07-29T07:10:18;19.80;85.00
53268;DHT22;39156;51.176;6.738;2023-07-29T07:12:44;19.90;84.80
53268;DHT22;39156;51.176;6.738;2023-07-29T07:15:10;20.10;84.60
53268;DHT22;39156;51.176;6.738;2023-07-29T07:17:36;20.20;83.80
53268;DHT22;39156;51.176;6.738;2023-07-29T07:20:01;20.30;83.60
53268;DHT22;39156;51.176;6.738;2023-07-29T07:22:28;20.50;84.40
53268;DHT22;39156;51.176;6.738;2023-07-29T07:24:54;20.90;84.80
53268;DHT22;39156;51.176;6.738;2023-07-29T07:27:19;21.10;84.90
53268;DHT22;39156;51.176;6.738;2023-07-29T07:29:45;21.40;84.10
53268;DHT22;39156;51.176;6.738;2023-07-29T07:32:10;21.70;83.00
53268;DHT22;39156;51.176;6.738;2023-07-29T07:34:36;22.00;83.30
53268;DHT22;39156;51.176;6.738;2023-07-29T07:37:02;22.50;83.70
53268;DHT22;39156;51.176;6.738;2023-07-29T07:39:29;22.90;83.80
53268;DHT22;39156;51.176;6.738;2023-07-29T07:41:54;23.60;83.20
53268;DHT22;39156;51.176;6.738;2023-07-29T07:44:20;24.20;83.30
53268;DHT22;39156;51.176;6.738;2023-07-29T07:46:46;24.80;81.90
53268;DHT22;39156;51.176;6.738;2023-07-29T07:49:12;25.50;80.00
53268;DHT22;39156;51.176;6.738;2023-07-29T07:51:38;26.10;77.10
53268;DHT22;39156;51.176;6.738;2023-07-29T07:54:04;26.60;73.90
53268;DHT22;39156;51.176;6.738;2023-07-29T07:56:30;26.90;72.40
53268;DHT22;39156;51.176;6.738;2023-07-29T07:58:55;27.20;71.30
53268;DHT22;39156;51.176;6.738;2023-07-29T08:01:21;27.50;71.10
53268;DHT22;39156;51.176;6.738;2023-07-29T08:03:47;27.90;70.30
53268;DHT22;39156;51.176;6.738;2023-07-29T08:06:13;28.30;69.20
53268;DHT22;39156;51.176;6.738;2023-07-29T08:08:38;28.70;68.30
53268;DHT22;39156;51.176;6.738;2023-07-29T08:11:04;29.20;66.90
53268;DHT22;39156;51.176;6.738;2023-07-29T08:13:30;29.60;65.70
53268;DHT22;39156;51.176;6.738;2023-07-29T08:15:56;30.10;63.30
53268;DHT22;39156;51.176;6.738;2023-07-29T08:18:22;30.50;62.70
53268;DHT22;39156;51.176;6.738;2023-07-29T08:20:58;30.80;61.10
53268;DHT22;39156;51.176;6.738;2023-07-29T08:23:25;31.20;57.40
53268;DHT22;39156;51.176;6.738;2023-07-29T08:25:55;31.50;58.20
53268;DHT22;39156;51.176;6.738;2023-07-29T08:28:30;31.60;56.10
53268;DHT22;39156;51.176;6.738;2023-07-29T08:30:57;31.80;56.10
53268;DHT22;39156;51.176;6.738;2023-07-29T08:33:24;31.90;55.00
53268;DHT22;39156;51.176;6.738;2023-07-29T08:35:50;32.00;53.70
53268;DHT22;39156;51.176;6.738;2023-07-29T08:38:15;32.00;53.20
53268;DHT22;39156;51.176;6.738;2023-07-29T08:41:08;32.00;52.70
53268;DHT22;39156;51.176;6.738;2023-07-29T08:43:38;32.10;52.90
53268;DHT22;39156;51.176;6.738;2023-07-29T08:46:04;32.20;52.30
53268;DHT22;39156;51.176;6.738;2023-07-29T08:48:40;32.20;51.60
53268;DHT22;39156;51.176;6.738;2023-07-29T08:51:08;32.10;51.30
53268;DHT22;39156;51.176;6.738;2023-07-29T08:53:35;32.20;50.80
53268;DHT22;39156;51.176;6.738;2023-07-29T08:56:02;32.20;50.10
53268;DHT22;39156;51.176;6.738;2023-07-29T08:58:28;32.20;50.10
53268;DHT22;39156;51.176;6.738;2023-07-29T09:00:54;32.30;49.80
53268;DHT22;39156;51.176;6.738;2023-07-29T09:03:21;32.40;48.80
53268;DHT22;39156;51.176;6.738;2023-07-29T09:05:47;32.40;47.80
53268;DHT22;39156;51.176;6.738;2023-07-29T09:08:13;32.20;47.40
53268;DHT22;39156;51.176;6.738;2023-07-29T09:10:40;32.00;47.50
53268;DHT22;39156;51.176;6.738;2023-07-29T09:13:06;31.60;47.50
53268;DHT22;39156;51.176;6.738;2023-07-29T09:15:34;31.20;47.50
53268;DHT22;39156;51.176;6.738;2023-07-29T09:18:12;30.80;47.50
53268;DHT22;39156;51.176;6.738;2023-07-29T09:20:40;30.30;47.90
53268;DHT22;39156;51.176;6.738;2023-07-29T09:23:08;30.10;48.30
53268;DHT22;39156;51.176;6.738;2023-07-29T09:25:36;29.80;48.40
53268;DHT22;39156;51.176;6.738;2023-07-29T09:28:12;29.60;48.90
53268;DHT22;39156;51.176;6.738;2023-07-29T09:30:39;29.40;48.90
53268;DHT22;39156;51.176;6.738;2023-07-29T09:33:05;29.30;49.60
53268;DHT22;39156;51.176;6.738;2023-07-29T09:35:34;29.30;50.00
53268;DHT22;39156;51.176;6.738;2023-07-29T09:38:05;29.20;49.70
53268;DHT22;39156;51.176;6.738;2023-07-29T09:40:38;29.20;49.70
53268;DHT22;39156;51.176;6.738;2023-07-29T09:43:09;29.10;49.30
53268;DHT22;39156;51.176;6.738;2023-07-29T09:45:36;29.00;49.10
53268;DHT22;39156;51.176;6.738;2023-07-29T09:48:04;28.90;49.40
53268;DHT22;39156;51.176;6.738;2023-07-29T09:50:34;28.80;49.30
53268;DHT22;39156;51.176;6.738;2023-07-29T09:53:01;28.60;49.50
53268;DHT22;39156;51.176;6.738;2023-07-29T09:55:28;28.40;49.50
53268;DHT22;39156;51.176;6.738;2023-07-29T09:57:59;28.20;50.50
53268;DHT22;39156;51.176;6.738;2023-07-29T10:00:31;28.00;50.40
53268;DHT22;39156;51.176;6.738;2023-07-29T10:02:57;27.80;51.00
53268;DHT22;39156;51.176;6.738;2023-07-29T10:05:28;27.60;51.00
53268;DHT22;39156;51.176;6.738;2023-07-29T10:07:55;27.40;51.30
53268;DHT22;39156;51.176;6.738;2023-07-29T10:10:21;27.40;52.30
53268;DHT22;39156;51.176;6.738;2023-07-29T10:12:47;27.30;52.60
53268;DHT22;39156;51.176;6.738;2023-07-29T10:15:13;27.40;53.00
53268;DHT22;39156;51.176;6.738;2023-07-29T10:17:40;27.50;53.40
53268;DHT22;39156;51.176;6.738;2023-07-29T10:20:07;27.60;53.10
53268;DHT22;39156;51.176;6.738;2023-07-29T10:22:42;27.80;53.40
53268;DHT22;39156;51.176;6.738;2023-07-29T10:25:14;27.90;52.50
53268;DHT22;39156;51.176;6.738;2023-07-29T10:27:59;28.00;52.10
53268;DHT22;39156;51.176;6.738;2023-07-29T10:30:28;28.00;51.70
53268;DHT22;39156;51.176;6.738;2023-07-29T10:32:58;27.90;51.50
53268;DHT22;39156;51.176;6.738;2023-07-29T10:35:27;27.90;51.20
53268;DHT22;39156;51.176;6.738;2023-07-29T10:37:53;27.70;51.10
53268;DHT22;39156;51.176;6.738;2023-07-29T10:40:20;27.60;51.10
53268;DHT22;39156;51.176;6.738;2023-07-29T10:43:09;27.40;51.30
53268;DHT22;39156;51.176;6.738;2023-07-29T10:45:38;27.20;51.50
53268;DHT22;39156;51.176;6.738;2023-07-29T10:48:39;27.10;51.50
53268;DHT22;39156;51.176;6.738;2023-07-29T10:51:35;27.00;51.80
53268;DHT22;39156;51.176;6.738;2023-07-29T10:54:13;27.00;52.40
53268;DHT22;39156;51.176;6.738;2023-07-29T10:56:43;27.00;52.40
53268;DHT22;39156;51.176;6.738;2023-07-29T11:01:42;27.20;52.30
53268;DHT22;39156;51.176;6.738;2023-07-29T11:09:52;27.50;51.70
53268;DHT22;39156;51.176;6.738;2023-07-29T11:12:42;27.60;52.20
53268;DHT22;39156;51.176;6.738;2023-07-29T11:17:39;27.80;52.10
53268;DHT22;39156;51.176;6.738;2023-07-29T11:20:09;27.80;51.90
53268;DHT22;39156;51.176;6.738;2023-07-29T11:22:36;27.70;51.70
53268;DHT22;39156;51.176;6.738;2023-07-29T11:25:02;27.60;52.20
53268;DHT22;39156;51.176;6.738;2023-07-29T11:27:28;27.40;51.90
53268;DHT22;39156;51.176;6.738;2023-07-29T11:30:02;27.20;51.70
53268;DHT22;39156;51.176;6.738;2023-07-29T11:32:30;27.00;52.00
53268;DHT22;39156;51.176;6.738;2023-07-29T11:35:00;26.90;52.30
53268;DHT22;39156;51.176;6.738;2023-07-29T11:37:29;26.90;53.10
53268;DHT22;39156;51.176;6.738;2023-07-29T11:39:55;26.90;53.00
53268;DHT22;39156;51.176;6.738;2023-07-29T11:42:21;26.90;53.30
53268;DHT22;39156;51.176;6.738;2023-07-29T11:44:46;26.90;53.20
53268;DHT22;39156;51.176;6.738;2023-07-29T11:47:12;27.00;52.60
53268;DHT22;39156;51.176;6.738;2023-07-29T11:49:39;27.00;52.80
53268;DHT22;39156;51.176;6.738;2023-07-29T11:52:09;27.10;53.20
53268;DHT22;39156;51.176;6.738;2023-07-29T11:54:39;27.10;53.20
53268;DHT22;39156;51.176;6.738;2023-07-29T11:57:08;27.20;52.60
53268;DHT22;39156;51.176;6.738;2023-07-29T11:59:36;27.20;52.90
53268;DHT22;39156;51.176;6.738;2023-07-29T12:02:06;27.30;52.30
53268;DHT22;39156;51.176;6.738;2023-07-29T12:04:38;27.30;52.40
53268;DHT22;39156;51.176;6.738;2023-07-29T12:07:05;27.40;52.70
53268;DHT22;39156;51.176;6.738;2023-07-29T12:09:31;27.40;52.10
53268;DHT22;39156;51.176;6.738;2023-07-29T12:11:59;27.40;51.90
53268;DHT22;39156;51.176;6.738;2023-07-29T12:14:26;27.40;52.20
53268;DHT22;39156;51.176;6.738;2023-07-29T12:16:53;27.40;52.30
53268;DHT22;39156;51.176;6.738;2023-07-29T12:19:20;27.40;52.10
53268;DHT22;39156;51.176;6.738;2023-07-29T12:21:48;27.30;51.80
53268;DHT22;39156;51.176;6.738;2023-07-29T12:24:14;27.30;51.60
53268;DHT22;39156;51.176;6.738;2023-07-29T12:26:41;27.40;52.60
53268;DHT22;39156;51.176;6.738;2023-07-29T12:29:14;27.30;52.10
53268;DHT22;39156;51.176;6.738;2023-07-29T12:31:41;27.20;51.70
53268;DHT22;39156;51.176;6.738;2023-07-29T12:34:07;27.20;51.60
53268;DHT22;39156;51.176;6.738;2023-07-29T12:36:49;27.20;51.60
53268;DHT22;39156;51.176;6.738;2023-07-29T12:39:28;27.10;51.80
53268;DHT22;39156;51.176;6.738;2023-07-29T12:41:56;27.10;51.70
53268;DHT22;39156;51.176;6.738;2023-07-29T12:44:24;27.10;51.70
53268;DHT22;39156;51.176;6.738;2023-07-29T12:46:51;27.10;51.80
53268;DHT22;39156;51.176;6.738;2023-07-29T12:49:17;27.00;51.90
53268;DHT22;39156;51.176;6.738;2023-07-29T12:51:43;27.00;52.20
53268;DHT22;39156;51.176;6.738;2023-07-29T12:54:09;27.00;52.30
53268;DHT22;39156;51.176;6.738;2023-07-29T12:56:35;27.00;52.30
53268;DHT22;39156;51.176;6.738;2023-07-29T12:59:02;27.00;52.20
53268;DHT22;39156;51.176;6.738;2023-07-29T13:01:28;27.00;52.30
53268;DHT22;39156;51.176;6.738;2023-07-29T13:03:54;27.00;52.30
53268;DHT22;39156;51.176;6.738;2023-07-29T13:06:20;27.10;52.60
53268;DHT22;39156;51.176;6.738;2023-07-29T13:08:46;27.10;53.10
53268;DHT22;39156;51.176;6.738;2023-07-29T13:11:13;27.10;52.50
53268;DHT22;39156;51.176;6.738;2023-07-29T13:13:39;27.10;52.70
53268;DHT22;39156;51.176;6.738;2023-07-29T13:16:05;27.00;52.60
53268;DHT22;39156;51.176;6.738;2023-07-29T13:18:31;27.00;52.70
53268;DHT22;39156;51.176;6.738;2023-07-29T13:20:57;26.90;52.90
53268;DHT22;39156;51.176;6.738;2023-07-29T13:23:24;26.90;53.50
53268;DHT22;39156;51.176;6.738;2023-07-29T13:25:50;26.80;54.30
53268;DHT22;39156;51.176;6.738;2023-07-29T13:28:16;26.80;54.80
53268;DHT22;39156;51.176;6.738;2023-07-29T13:30:42;26.70;54.40
53268;DHT22;39156;51.176;6.738;2023-07-29T13:33:08;26.60;55.10
53268;DHT22;39156;51.176;6.738;2023-07-29T13:35:34;26.60;55.00
53268;DHT22;39156;51.176;6.738;2023-07-29T13:38:00;26.50;55.40
53268;DHT22;39156;51.176;6.738;2023-07-29T13:40:27;26.40;55.10
53268;DHT22;39156;51.176;6.738;2023-07-29T13:42:53;26.40;55.40
53268;DHT22;39156;51.176;6.738;2023-07-29T13:45:19;26.30;55.90
53268;DHT22;39156;51.176;6.738;2023-07-29T13:47:45;26.30;56.10
53268;DHT22;39156;51.176;6.738;2023-07-29T13:50:10;26.30;56.60
53268;DHT22;39156;51.176;6.738;2023-07-29T13:52:37;26.30;56.40
53268;DHT22;39156;51.176;6.738;2023-07-29T13:55:04;26.30;55.60
53268;DHT22;39156;51.176;6.738;2023-07-29T13:57:31;26.30;55.10
53268;DHT22;39156;51.176;6.738;2023-07-29T13:59:56;26.30;55.00
53268;DHT22;39156;51.176;6.738;2023-07-29T14:02:22;26.30;55.30
53268;DHT22;39156;51.176;6.738;2023-07-29T14:04:48;26.20;56.20
53268;DHT22;39156;51.176;6.738;2023-07-29T14:07:14;26.10;56.80
53268;DHT22;39156;51.176;6.738;2023-07-29T14:09:39;26.00;57.30
53268;DHT22;39156;51.176;6.738;2023-07-29T14:12:06;25.80;58.20
53268;DHT22;39156;51.176;6.738;2023-07-29T14:14:32;25.70;58.80
53268;DHT22;39156;51.176;6.738;2023-07-29T14:16:57;25.60;60.00
53268;DHT22;39156;51.176;6.738;2023-07-29T14:19:23;25.50;60.50
53268;DHT22;39156;51.176;6.738;2023-07-29T14:21:49;25.40;60.40
53268;DHT22;39156;51.176;6.738;2023-07-29T14:24:15;25.40;60.70
53268;DHT22;39156;51.176;6.738;2023-07-29T14:26:42;25.40;61.40
53268;DHT22;39156;51.176;6.738;2023-07-29T14:29:07;25.40;61.40
53268;DHT22;39156;51.176;6.738;2023-07-29T14:31:33;25.40;61.30
53268;DHT22;39156;51.176;6.738;2023-07-29T14:33:59;25.40;61.20
53268;DHT22;39156;51.176;6.738;2023-07-29T14:36:25;25.40;61.60
53268;DHT22;39156;51.176;6.738;2023-07-29T14:38:51;25.40;61.00
53268;DHT22;39156;51.176;6.738;2023-07-29T14:41:17;25.40;60.60
53268;DHT22;39156;51.176;6.738;2023-07-29T14:43:43;25.40;60.70
53268;DHT22;39156;51.176;6.738;2023-07-29T14:46:08;25.40;60.20
53268;DHT22;39156;51.176;6.738;2023-07-29T14:48:34;25.30;60.00
53268;DHT22;39156;51.176;6.738;2023-07-29T14:51:00;25.30;60.80
53268;DHT22;39156;51.176;6.738;2023-07-29T14:53:26;25.30;60.70
53268;DHT22;39156;51.176;6.738;2023-07-29T14:55:51;25.30;60.70
53268;DHT22;39156;51.176;6.738;2023-07-29T14:58:17;25.30;60.90
53268;DHT22;39156;51.176;6.738;2023-07-29T15:00:43;25.40;60.60
53268;DHT22;39156;51.176;6.738;2023-07-29T15:03:08;25.40;60.40
53268;DHT22;39156;51.176;6.738;2023-07-29T15:05:34;25.40;59.60
53268;DHT22;39156;51.176;6.738;2023-07-29T15:08:00;25.40;60.30
53268;DHT22;39156;51.176;6.738;2023-07-29T15:10:25;25.40;60.20
53268;DHT22;39156;51.176;6.738;2023-07-29T15:12:51;25.50;60.30
53268;DHT22;39156;51.176;6.738;2023-07-29T15:15:17;25.50;60.20
53268;DHT22;39156;51.176;6.738;2023-07-29T15:17:42;25.60;60.20
53268;DHT22;39156;51.176;6.738;2023-07-29T15:20:09;25.70;59.70
53268;DHT22;39156;51.176;6.738;2023-07-29T15:22:35;25.70;59.50
53268;DHT22;39156;51.176;6.738;2023-07-29T15:25:01;25.70;58.70
53268;DHT22;39156;51.176;6.738;2023-07-29T15:27:28;25.70;58.70
53268;DHT22;39156;51.176;6.738;2023-07-29T15:29:55;25.70;58.50
53268;DHT22;39156;51.176;6.738;2023-07-29T15:32:22;25.80;58.20
53268;DHT22;39156;51.176;6.738;2023-07-29T15:34:48;25.70;58.20
53268;DHT22;39156;51.176;6.738;2023-07-29T15:37:14;25.70;58.70
53268;DHT22;39156;51.176;6.738;2023-07-29T15:39:40;25.70;58.80
53268;DHT22;39156;51.176;6.738;2023-07-29T15:42:06;25.70;58.90
53268;DHT22;39156;51.176;6.738;2023-07-29T15:44:32;25.70;58.20